createdAt,value
2022-08-09T00:13:45.039Z,100832.09
2022-08-09T00:28:36.798Z,100831.06
2022-08-09T00:44:11.609Z,100824.39
2022-08-09T00:58:22.272Z,100814.42
2022-08-09T01:13:11.704Z,100822.61
2022-08-09T01:28:00.974Z,100831.12
2022-08-09T01:42:51.899Z,100830.80
2022-08-09T01:57:45.936Z,100838.51
2022-08-09T02:12:34.321Z,100858.19
2022-08-09T02:27:43.034Z,100857.66
2022-08-09T02:42:24.779Z,100859.56
2022-08-09T02:57:23.668Z,100864.30
2022-08-09T03:12:10.917Z,100863.34
2022-08-09T03:26:58.546Z,100862.77
2022-08-09T03:41:50.204Z,100866.05
2022-08-09T03:56:41.706Z,100873.20
2022-08-09T04:11:50.761Z,100883.96
2022-08-09T04:26:47.756Z,100903.13
2022-08-09T04:41:43.619Z,100919.47
2022-08-09T04:56:29.358Z,100931.75
2022-08-09T05:11:20.615Z,100951.82
2022-08-09T05:26:15.950Z,100956.69
2022-08-09T05:41:03.383Z,100973.42
2022-08-09T05:55:57.163Z,100979.94
2022-08-09T06:10:49.900Z,100989.64
2022-08-09T06:25:41.988Z,100995.53
2022-08-09T06:40:34.097Z,101001.88
2022-08-09T06:55:25.381Z,101002.08
2022-08-09T07:10:29.424Z,101010.52
2022-08-09T07:25:10.938Z,101017.78
2022-08-09T07:40:03.077Z,101026.13
2022-08-09T07:54:55.949Z,101023.17
2022-08-09T08:10:08.957Z,101028.69
2022-08-09T08:24:51.352Z,101026.69
2022-08-09T08:39:44.974Z,101020.47
2022-08-09T08:54:36.755Z,101022.55
2022-08-09T09:09:58.131Z,101029.44
2022-08-09T09:24:22.210Z,101031.23
2022-08-09T09:39:14.538Z,101007.59
2022-08-09T09:54:17.133Z,101004.02
2022-08-09T10:09:00.950Z,100986.95
2022-08-09T10:23:56.144Z,100977.58
2022-08-09T10:38:56.725Z,100975.81
2022-08-09T10:54:04.958Z,100956.13
2022-08-09T11:24:07.445Z,100944.30
2022-08-09T11:54:13.719Z,100925.56
2022-08-09T12:09:17.644Z,100926.45
2022-08-09T12:24:08.738Z,100905.23
2022-08-09T12:38:56.170Z,100903.92
2022-08-09T12:53:58.660Z,100904.98
2022-08-09T13:08:58.979Z,100889.54
2022-08-09T13:24:42.635Z,100884.27
2022-08-09T13:38:59.994Z,100868.83
2022-08-09T13:53:51.509Z,100861.33
2022-08-09T14:08:44.846Z,100856.81
2022-08-09T14:23:40.029Z,100833.70
2022-08-09T14:38:31.102Z,100823.09
2022-08-09T14:53:26.266Z,100822.95
2022-08-09T15:08:21.606Z,100822.05
2022-08-09T15:24:02.743Z,100814.08
2022-08-09T15:38:11.740Z,100811.33
2022-08-09T15:53:05.986Z,100800.76
2022-08-09T16:07:56.774Z,100796.81
2022-08-09T16:22:53.754Z,100799.39
2022-08-09T16:37:54.864Z,100798.20
2022-08-09T16:52:43.012Z,100790.84
2022-08-09T17:08:43.818Z,100795.70
2022-08-09T17:22:31.638Z,100789.31
2022-08-09T17:37:25.066Z,100795.81
2022-08-09T17:52:20.662Z,100807.56
2022-08-09T18:07:23.114Z,100804.62
2022-08-09T18:22:16.704Z,100814.76
2022-08-09T18:37:10.143Z,100831.19
2022-08-09T19:07:06.017Z,100849.37
2022-08-09T19:22:06.350Z,100868.52
2022-08-09T19:36:49.478Z,100862.38
2022-08-09T19:51:42.454Z,100873.27
2022-08-09T20:06:33.031Z,100873.92
2022-08-09T20:36:30.063Z,100883.20
2022-08-09T20:51:24.108Z,100890.84
2022-08-09T21:06:18.224Z,100888.61
2022-08-09T21:21:17.606Z,100890.61
2022-08-09T21:36:01.046Z,100889.73
2022-08-09T22:05:51.231Z,100887.02
2022-08-09T22:20:40.585Z,100881.73
2022-08-09T22:36:01.309Z,100888.05
2022-08-09T22:50:26.459Z,100890.13
2022-08-09T23:05:18.421Z,100889.30
2022-08-09T23:20:12.000Z,100883.84
2022-08-09T23:35:05.830Z,100896.28
2022-08-09T23:49:57.575Z,100889.88
